<?xml version="1.0" encoding="UTF-8" standalone="no" ?>
<gpx xmlns="http://www.topografix.com/GPX/1/1" xmlns:xsi="http://www.w3.org/2001/XMLSchema-instance" xsi:schemaLocation="http://www.topografix.com/GPX/1/1 http://www.topografix.com/GPX/1/1/gpx.xsd" version="1.1" creator="VisuGPX - https://www.visugpx.com">
  <metadata>
    <name>Deuchiste, retour à Crécy 30 mars 2014</name>
    <desc><![CDATA[Chemin de retour à vélo depuis la rocade des monts d\'Or, sans traîner...]]></desc>
  </metadata>
  <trk>
    <name><![CDATA[Deuchiste, retour à Crécy 30 mars 2014_1]]></name>
    <trkseg>
      <trkpt lat="45.81892" lon="4.79993">
        <ele>372</ele>
        <time>2014-03-30T16:24:33.1Z</time>
      </trkpt>
      <trkpt lat="45.81891" lon="4.79993">
        <ele>372</ele>
        <time>2014-03-30T16:24:35.1Z</time>
      </trkpt>
      <trkpt lat="45.81887" lon="4.79996">
        <ele>372</ele>
        <time>2014-03-30T16:24:38.1Z</time>
      </trkpt>
      <trkpt lat="45.81884" lon="4.79997">
        <ele>372</ele>
        <time>2014-03-30T16:24:40.1Z</time>
      </trkpt>
      <trkpt lat="45.81883" lon="4.80002">
        <ele>371</ele>
        <time>2014-03-30T16:24:43.1Z</time>
      </trkpt>
      <trkpt lat="45.81884" lon="4.80009">
        <ele>371</ele>
        <time>2014-03-30T16:24:45.1Z</time>
      </trkpt>
      <trkpt lat="45.81888" lon="4.80017">
        <ele>370</ele>
        <time>2014-03-30T16:24:48.1Z</time>
      </trkpt>
      <trkpt lat="45.81891" lon="4.80019">
        <ele>369</ele>
        <time>2014-03-30T16:24:50.1Z</time>
      </trkpt>
      <trkpt lat="45.81895" lon="4.80018">
        <ele>367</ele>
        <time>2014-03-30T16:24:53.1Z</time>
      </trkpt>
      <trkpt lat="45.81897" lon="4.80025">
        <ele>366</ele>
        <time>2014-03-30T16:24:56.1Z</time>
      </trkpt>
      <trkpt lat="45.81893" lon="4.80026">
        <ele>366</ele>
        <time>2014-03-30T16:24:59.1Z</time>
      </trkpt>
      <trkpt lat="45.81886" lon="4.80025">
        <ele>366</ele>
        <time>2014-03-30T16:25:02.1Z</time>
      </trkpt>
      <trkpt lat="45.81881" lon="4.80023">
        <ele>366</ele>
        <time>2014-03-30T16:25:04.1Z</time>
      </trkpt>
      <trkpt lat="45.81872" lon="4.80021">
        <ele>366</ele>
        <time>2014-03-30T16:25:07.1Z</time>
      </trkpt>
      <trkpt lat="45.81864" lon="4.80017">
        <ele>367</ele>
        <time>2014-03-30T16:25:09.1Z</time>
      </trkpt>
      <trkpt lat="45.81858" lon="4.80014">
        <ele>367</ele>
        <time>2014-03-30T16:25:12.1Z</time>
      </trkpt>
      <trkpt lat="45.81847" lon="4.80013">
        <ele>367</ele>
        <time>2014-03-30T16:25:15.1Z</time>
      </trkpt>
      <trkpt lat="45.81836" lon="4.80007">
        <ele>367</ele>
        <time>2014-03-30T16:25:17.1Z</time>
      </trkpt>
      <trkpt lat="45.81828" lon="4.80003">
        <ele>366</ele>
        <time>2014-03-30T16:25:19.1Z</time>
      </trkpt>
      <trkpt lat="45.81819" lon="4.79997">
        <ele>366</ele>
        <time>2014-03-30T16:25:22.1Z</time>
      </trkpt>
      <trkpt lat="45.81807" lon="4.7999">
        <ele>366</ele>
        <time>2014-03-30T16:25:25.1Z</time>
      </trkpt>
      <trkpt lat="45.81797" lon="4.79989">
        <ele>366</ele>
        <time>2014-03-30T16:25:27.1Z</time>
      </trkpt>
      <trkpt lat="45.81784" lon="4.79988">
        <ele>365</ele>
        <time>2014-03-30T16:25:29.1Z</time>
      </trkpt>
      <trkpt lat="45.81773" lon="4.79988">
        <ele>364</ele>
        <time>2014-03-30T16:25:31.1Z</time>
      </trkpt>
      <trkpt lat="45.81762" lon="4.79987">
        <ele>364</ele>
        <time>2014-03-30T16:25:34.1Z</time>
      </trkpt>
      <trkpt lat="45.81751" lon="4.79987">
        <ele>363</ele>
        <time>2014-03-30T16:25:36.1Z</time>
      </trkpt>
      <trkpt lat="45.81739" lon="4.79986">
        <ele>362</ele>
        <time>2014-03-30T16:25:38.1Z</time>
      </trkpt>
      <trkpt lat="45.81726" lon="4.79984">
        <ele>361</ele>
        <time>2014-03-30T16:25:40.1Z</time>
      </trkpt>
      <trkpt lat="45.81705" lon="4.79984">
        <ele>361</ele>
        <time>2014-03-30T16:25:43.1Z</time>
      </trkpt>
      <trkpt lat="45.8169" lon="4.79983">
        <ele>359</ele>
        <time>2014-03-30T16:25:45.1Z</time>
      </trkpt>
      <trkpt lat="45.81666" lon="4.79982">
        <ele>358</ele>
        <time>2014-03-30T16:25:48.1Z</time>
      </trkpt>
      <trkpt lat="45.81644" lon="4.79982">
        <ele>356</ele>
        <time>2014-03-30T16:25:50.1Z</time>
      </trkpt>
      <trkpt lat="45.8163" lon="4.79981">
        <ele>356</ele>
        <time>2014-03-30T16:25:53.1Z</time>
      </trkpt>
      <trkpt lat="45.81609" lon="4.79979">
        <ele>355</ele>
        <time>2014-03-30T16:25:55.1Z</time>
      </trkpt>
      <trkpt lat="45.81596" lon="4.79978">
        <ele>355</ele>
        <time>2014-03-30T16:25:58.1Z</time>
      </trkpt>
      <trkpt lat="45.81577" lon="4.79976">
        <ele>355</ele>
        <time>2014-03-30T16:26:01.1Z</time>
      </trkpt>
      <trkpt lat="45.81559" lon="4.79973">
        <ele>355</ele>
        <time>2014-03-30T16:26:04.1Z</time>
      </trkpt>
      <trkpt lat="45.81541" lon="4.7997">
        <ele>355</ele>
        <time>2014-03-30T16:26:07.1Z</time>
      </trkpt>
      <trkpt lat="45.81525" lon="4.79966">
        <ele>355</ele>
        <time>2014-03-30T16:26:09.1Z</time>
      </trkpt>
      <trkpt lat="45.81509" lon="4.79963">
        <ele>355</ele>
        <time>2014-03-30T16:26:12.1Z</time>
      </trkpt>
      <trkpt lat="45.81493" lon="4.79962">
        <ele>356</ele>
        <time>2014-03-30T16:26:15.1Z</time>
      </trkpt>
      <trkpt lat="45.81483" lon="4.79961">
        <ele>356</ele>
        <time>2014-03-30T16:26:17.1Z</time>
      </trkpt>
      <trkpt lat="45.81474" lon="4.79961">
        <ele>356</ele>
        <time>2014-03-30T16:26:19.1Z</time>
      </trkpt>
      <trkpt lat="45.81466" lon="4.7996">
        <ele>356</ele>
        <time>2014-03-30T16:26:21.1Z</time>
      </trkpt>
      <trkpt lat="45.81457" lon="4.7996">
        <ele>357</ele>
        <time>2014-03-30T16:26:23.1Z</time>
      </trkpt>
      <trkpt lat="45.81448" lon="4.79958">
        <ele>357</ele>
        <time>2014-03-30T16:26:25.1Z</time>
      </trkpt>
      <trkpt lat="45.81439" lon="4.79957">
        <ele>357</ele>
        <time>2014-03-30T16:26:27.1Z</time>
      </trkpt>
      <trkpt lat="45.81427" lon="4.79957">
        <ele>356</ele>
        <time>2014-03-30T16:26:31.1Z</time>
      </trkpt>
      <trkpt lat="45.81411" lon="4.79956">
        <ele>356</ele>
        <time>2014-03-30T16:26:34.1Z</time>
      </trkpt>
      <trkpt lat="45.814" lon="4.79958">
        <ele>355</ele>
        <time>2014-03-30T16:26:36.1Z</time>
      </trkpt>
      <trkpt lat="45.81388" lon="4.79961">
        <ele>355</ele>
        <time>2014-03-30T16:26:38.1Z</time>
      </trkpt>
      <trkpt lat="45.81376" lon="4.79964">
        <ele>354</ele>
        <time>2014-03-30T16:26:40.1Z</time>
      </trkpt>
      <trkpt lat="45.81363" lon="4.79966">
        <ele>353</ele>
        <time>2014-03-30T16:26:42.1Z</time>
      </trkpt>
      <trkpt lat="45.81342" lon="4.79971">
        <ele>353</ele>
        <time>2014-03-30T16:26:45.1Z</time>
      </trkpt>
      <trkpt lat="45.81321" lon="4.79977">
        <ele>351</ele>
        <time>2014-03-30T16:26:48.1Z</time>
      </trkpt>
      <trkpt lat="45.813" lon="4.79987">
        <ele>350</ele>
        <time>2014-03-30T16:26:51.1Z</time>
      </trkpt>
      <trkpt lat="45.81287" lon="4.79995">
        <ele>349</ele>
        <time>2014-03-30T16:26:53.1Z</time>
      </trkpt>
      <trkpt lat="45.81266" lon="4.80011">
        <ele>348</ele>
        <time>2014-03-30T16:26:56.1Z</time>
      </trkpt>
      <trkpt lat="45.81244" lon="4.80023">
        <ele>347</ele>
        <time>2014-03-30T16:26:58.1Z</time>
      </trkpt>
      <trkpt lat="45.8123" lon="4.80031">
        <ele>346</ele>
        <time>2014-03-30T16:27:01.1Z</time>
      </trkpt>
      <trkpt lat="45.81209" lon="4.80038">
        <ele>345</ele>
        <time>2014-03-30T16:27:03.1Z</time>
      </trkpt>
      <trkpt lat="45.81197" lon="4.80041">
        <ele>345</ele>
        <time>2014-03-30T16:27:05.1Z</time>
      </trkpt>
      <trkpt lat="45.81179" lon="4.80045">
        <ele>344</ele>
        <time>2014-03-30T16:27:08.1Z</time>
      </trkpt>
      <trkpt lat="45.81163" lon="4.80049">
        <ele>345</ele>
        <time>2014-03-30T16:27:11.1Z</time>
      </trkpt>
      <trkpt lat="45.81153" lon="4.80052">
        <ele>345</ele>
        <time>2014-03-30T16:27:13.1Z</time>
      </trkpt>
      <trkpt lat="45.81138" lon="4.80055">
        <ele>345</ele>
        <time>2014-03-30T16:27:16.1Z</time>
      </trkpt>
      <trkpt lat="45.81129" lon="4.80056">
        <ele>345</ele>
        <time>2014-03-30T16:27:19.1Z</time>
      </trkpt>
      <trkpt lat="45.81116" lon="4.8006">
        <ele>346</ele>
        <time>2014-03-30T16:27:21.1Z</time>
      </trkpt>
      <trkpt lat="45.81107" lon="4.80063">
        <ele>346</ele>
        <time>2014-03-30T16:27:23.1Z</time>
      </trkpt>
      <trkpt lat="45.81097" lon="4.80064">
        <ele>346</ele>
        <time>2014-03-30T16:27:25.1Z</time>
      </trkpt>
      <trkpt lat="45.81088" lon="4.80065">
        <ele>347</ele>
        <time>2014-03-30T16:27:27.1Z</time>
      </trkpt>
      <trkpt lat="45.81079" lon="4.8007">
        <ele>347</ele>
        <time>2014-03-30T16:27:30.1Z</time>
      </trkpt>
      <trkpt lat="45.81069" lon="4.80076">
        <ele>348</ele>
        <time>2014-03-30T16:27:32.1Z</time>
      </trkpt>
      <trkpt lat="45.8106" lon="4.80082">
        <ele>348</ele>
        <time>2014-03-30T16:27:34.1Z</time>
      </trkpt>
      <trkpt lat="45.81049" lon="4.8009">
        <ele>349</ele>
        <time>2014-03-30T16:27:37.1Z</time>
      </trkpt>
      <trkpt lat="45.81042" lon="4.80095">
        <ele>349</ele>
        <time>2014-03-30T16:27:39.1Z</time>
      </trkpt>
      <trkpt lat="45.81036" lon="4.80101">
        <ele>349</ele>
        <time>2014-03-30T16:27:41.1Z</time>
      </trkpt>
      <trkpt lat="45.81029" lon="4.80109">
        <ele>349</ele>
        <time>2014-03-30T16:27:43.1Z</time>
      </trkpt>
      <trkpt lat="45.81018" lon="4.80115">
        <ele>349</ele>
        <time>2014-03-30T16:27:46.1Z</time>
      </trkpt>
      <trkpt lat="45.81008" lon="4.80119">
        <ele>348</ele>
        <time>2014-03-30T16:27:48.1Z</time>
      </trkpt>
      <trkpt lat="45.81001" lon="4.80124">
        <ele>348</ele>
        <time>2014-03-30T16:27:51.1Z</time>
      </trkpt>
      <trkpt lat="45.80992" lon="4.80136">
        <ele>348</ele>
        <time>2014-03-30T16:27:53.1Z</time>
      </trkpt>
      <trkpt lat="45.80984" lon="4.80145">
        <ele>347</ele>
        <time>2014-03-30T16:27:56.1Z</time>
      </trkpt>
      <trkpt lat="45.80973" lon="4.80158">
        <ele>346</ele>
        <time>2014-03-30T16:27:59.1Z</time>
      </trkpt>
      <trkpt lat="45.80965" lon="4.80169">
        <ele>346</ele>
        <time>2014-03-30T16:28:01.1Z</time>
      </trkpt>
      <trkpt lat="45.80949" lon="4.80185">
        <ele>346</ele>
        <time>2014-03-30T16:28:04.1Z</time>
      </trkpt>
      <trkpt lat="45.80931" lon="4.80199">
        <ele>345</ele>
        <time>2014-03-30T16:28:07.1Z</time>
      </trkpt>
      <trkpt lat="45.80918" lon="4.80208">
        <ele>344</ele>
        <time>2014-03-30T16:28:09.1Z</time>
      </trkpt>
      <trkpt lat="45.80905" lon="4.80216">
        <ele>343</ele>
        <time>2014-03-30T16:28:11.1Z</time>
      </trkpt>
      <trkpt lat="45.80893" lon="4.80228">
        <ele>342</ele>
        <time>2014-03-30T16:28:13.1Z</time>
      </trkpt>
      <trkpt lat="45.80874" lon="4.80241">
        <ele>341</ele>
        <time>2014-03-30T16:28:16.1Z</time>
      </trkpt>
      <trkpt lat="45.80854" lon="4.80256">
        <ele>340</ele>
        <time>2014-03-30T16:28:18.1Z</time>
      </trkpt>
      <trkpt lat="45.80841" lon="4.80265">
        <ele>339</ele>
        <time>2014-03-30T16:28:20.1Z</time>
      </trkpt>
      <trkpt lat="45.80828" lon="4.80274">
        <ele>338</ele>
        <time>2014-03-30T16:28:22.1Z</time>
      </trkpt>
      <trkpt lat="45.80815" lon="4.80284">
        <ele>337</ele>
        <time>2014-03-30T16:28:24.1Z</time>
      </trkpt>
      <trkpt lat="45.80801" lon="4.80292">
        <ele>336</ele>
        <time>2014-03-30T16:28:27.1Z</time>
      </trkpt>
      <trkpt lat="45.80781" lon="4.80304">
        <ele>336</ele>
        <time>2014-03-30T16:28:29.1Z</time>
      </trkpt>
      <trkpt lat="45.80768" lon="4.80312">
        <ele>335</ele>
        <time>2014-03-30T16:28:31.1Z</time>
      </trkpt>
      <trkpt lat="45.80756" lon="4.80322">
        <ele>334</ele>
        <time>2014-03-30T16:28:34.1Z</time>
      </trkpt>
      <trkpt lat="45.80742" lon="4.80328">
        <ele>333</ele>
        <time>2014-03-30T16:28:36.1Z</time>
      </trkpt>
      <trkpt lat="45.80724" lon="4.80342">
        <ele>332</ele>
        <time>2014-03-30T16:28:38.1Z</time>
      </trkpt>
      <trkpt lat="45.80711" lon="4.80349">
        <ele>332</ele>
        <time>2014-03-30T16:28:40.1Z</time>
      </trkpt>
      <trkpt lat="45.807" lon="4.8036">
        <ele>331</ele>
        <time>2014-03-30T16:28:42.1Z</time>
      </trkpt>
      <trkpt lat="45.80687" lon="4.80367">
        <ele>331</ele>
        <time>2014-03-30T16:28:45.1Z</time>
      </trkpt>
      <trkpt lat="45.80669" lon="4.80377">
        <ele>330</ele>
        <time>2014-03-30T16:28:47.1Z</time>
      </trkpt>
      <trkpt lat="45.80658" lon="4.8038">
        <ele>330</ele>
        <time>2014-03-30T16:28:50.1Z</time>
      </trkpt>
      <trkpt lat="45.80645" lon="4.80381">
        <ele>330</ele>
        <time>2014-03-30T16:28:52.1Z</time>
      </trkpt>
      <trkpt lat="45.80624" lon="4.80383">
        <ele>330</ele>
        <time>2014-03-30T16:28:54.1Z</time>
      </trkpt>
      <trkpt lat="45.80611" lon="4.80382">
        <ele>330</ele>
        <time>2014-03-30T16:28:57.1Z</time>
      </trkpt>
      <trkpt lat="45.80592" lon="4.80384">
        <ele>329</ele>
        <time>2014-03-30T16:28:59.1Z</time>
      </trkpt>
      <trkpt lat="45.80579" lon="4.80383">
        <ele>328</ele>
        <time>2014-03-30T16:29:02.1Z</time>
      </trkpt>
      <trkpt lat="45.80558" lon="4.80381">
        <ele>327</ele>
        <time>2014-03-30T16:29:04.1Z</time>
      </trkpt>
      <trkpt lat="45.80545" lon="4.80383">
        <ele>327</ele>
        <time>2014-03-30T16:29:07.1Z</time>
      </trkpt>
      <trkpt lat="45.80526" lon="4.80383">
        <ele>326</ele>
        <time>2014-03-30T16:29:10.1Z</time>
      </trkpt>
      <trkpt lat="45.80506" lon="4.80384">
        <ele>326</ele>
        <time>2014-03-30T16:29:12.1Z</time>
      </trkpt>
      <trkpt lat="45.80492" lon="4.80383">
        <ele>326</ele>
        <time>2014-03-30T16:29:14.1Z</time>
      </trkpt>
      <trkpt lat="45.8047" lon="4.80382">
        <ele>324</ele>
        <time>2014-03-30T16:29:17.1Z</time>
      </trkpt>
      <trkpt lat="45.80456" lon="4.8038">
        <ele>323</ele>
        <time>2014-03-30T16:29:19.1Z</time>
      </trkpt>
      <trkpt lat="45.80439" lon="4.80379">
        <ele>321</ele>
        <time>2014-03-30T16:29:22.1Z</time>
      </trkpt>
      <trkpt lat="45.80412" lon="4.80378">
        <ele>319</ele>
        <time>2014-03-30T16:29:24.1Z</time>
      </trkpt>
      <trkpt lat="45.80391" lon="4.80377">
        <ele>318</ele>
        <time>2014-03-30T16:29:26.1Z</time>
      </trkpt>
      <trkpt lat="45.80356" lon="4.80376">
        <ele>314</ele>
        <time>2014-03-30T16:29:29.1Z</time>
      </trkpt>
      <trkpt lat="45.80332" lon="4.80375">
        <ele>311</ele>
        <time>2014-03-30T16:29:32.1Z</time>
      </trkpt>
      <trkpt lat="45.80299" lon="4.80372">
        <ele>309</ele>
        <time>2014-03-30T16:29:34.1Z</time>
      </trkpt>
      <trkpt lat="45.80271" lon="4.80362">
        <ele>304</ele>
        <time>2014-03-30T16:29:38.1Z</time>
      </trkpt>
      <trkpt lat="45.80246" lon="4.80344">
        <ele>302</ele>
        <time>2014-03-30T16:29:40.1Z</time>
      </trkpt>
      <trkpt lat="45.80233" lon="4.80332">
        <ele>302</ele>
        <time>2014-03-30T16:29:42.1Z</time>
      </trkpt>
      <trkpt lat="45.80222" lon="4.80326">
        <ele>301</ele>
        <time>2014-03-30T16:29:45.1Z</time>
      </trkpt>
      <trkpt lat="45.80212" lon="4.80325">
        <ele>300</ele>
        <time>2014-03-30T16:29:47.1Z</time>
      </trkpt>
      <trkpt lat="45.80204" lon="4.80327">
        <ele>300</ele>
        <time>2014-03-30T16:29:49.1Z</time>
      </trkpt>
      <trkpt lat="45.80189" lon="4.80333">
        <ele>299</ele>
        <time>2014-03-30T16:29:52.1Z</time>
      </trkpt>
      <trkpt lat="45.80177" lon="4.80339">
        <ele>299</ele>
        <time>2014-03-30T16:29:54.1Z</time>
      </trkpt>
      <trkpt lat="45.80166" lon="4.80345">
        <ele>298</ele>
        <time>2014-03-30T16:29:57.1Z</time>
      </trkpt>
      <trkpt lat="45.80149" lon="4.80353">
        <ele>297</ele>
        <time>2014-03-30T16:29:59.1Z</time>
      </trkpt>
      <trkpt lat="45.80138" lon="4.80359">
        <ele>297</ele>
        <time>2014-03-30T16:30:01.1Z</time>
      </trkpt>
      <trkpt lat="45.80127" lon="4.80365">
        <ele>297</ele>
        <time>2014-03-30T16:30:03.1Z</time>
      </trkpt>
      <trkpt lat="45.80116" lon="4.80371">
        <ele>297</ele>
        <time>2014-03-30T16:30:05.1Z</time>
      </trkpt>
      <trkpt lat="45.80105" lon="4.80377">
        <ele>296</ele>
        <time>2014-03-30T16:30:08.1Z</time>
      </trkpt>
      <trkpt lat="45.80093" lon="4.80384">
        <ele>296</ele>
        <time>2014-03-30T16:30:10.1Z</time>
      </trkpt>
      <trkpt lat="45.80087" lon="4.80386">
        <ele>296</ele>
        <time>2014-03-30T16:30:13.1Z</time>
      </trkpt>
      <trkpt lat="45.80074" lon="4.80392">
        <ele>295</ele>
        <time>2014-03-30T16:30:15.1Z</time>
      </trkpt>
      <trkpt lat="45.80059" lon="4.80399">
        <ele>295</ele>
        <time>2014-03-30T16:30:18.1Z</time>
      </trkpt>
      <trkpt lat="45.80041" lon="4.80409">
        <ele>295</ele>
        <time>2014-03-30T16:30:22.1Z</time>
      </trkpt>
      <trkpt lat="45.80024" lon="4.80418">
        <ele>294</ele>
        <time>2014-03-30T16:30:24.1Z</time>
      </trkpt>
      <trkpt lat="45.80013" lon="4.80425">
        <ele>294</ele>
        <time>2014-03-30T16:30:26.1Z</time>
      </trkpt>
      <trkpt lat="45.79997" lon="4.80434">
        <ele>293</ele>
        <time>2014-03-30T16:30:29.1Z</time>
      </trkpt>
      <trkpt lat="45.79981" lon="4.80441">
        <ele>293</ele>
        <time>2014-03-30T16:30:32.1Z</time>
      </trkpt>
      <trkpt lat="45.7997" lon="4.80445">
        <ele>293</ele>
        <time>2014-03-30T16:30:34.1Z</time>
      </trkpt>
      <trkpt lat="45.7996" lon="4.80449">
        <ele>293</ele>
        <time>2014-03-30T16:30:36.1Z</time>
      </trkpt>
      <trkpt lat="45.79945" lon="4.80456">
        <ele>293</ele>
        <time>2014-03-30T16:30:39.1Z</time>
      </trkpt>
      <trkpt lat="45.79931" lon="4.80464">
        <ele>293</ele>
        <time>2014-03-30T16:30:43.1Z</time>
      </trkpt>
      <trkpt lat="45.79918" lon="4.8047">
        <ele>293</ele>
        <time>2014-03-30T16:30:45.1Z</time>
      </trkpt>
      <trkpt lat="45.79909" lon="4.80474">
        <ele>292</ele>
        <time>2014-03-30T16:30:47.1Z</time>
      </trkpt>
      <trkpt lat="45.79895" lon="4.80479">
        <ele>292</ele>
        <time>2014-03-30T16:30:50.1Z</time>
      </trkpt>
      <trkpt lat="45.79885" lon="4.80485">
        <ele>292</ele>
        <time>2014-03-30T16:30:52.1Z</time>
      </trkpt>
      <trkpt lat="45.79876" lon="4.80487">
        <ele>292</ele>
        <time>2014-03-30T16:30:54.1Z</time>
      </trkpt>
      <trkpt lat="45.79868" lon="4.80489">
        <ele>292</ele>
        <time>2014-03-30T16:30:57.1Z</time>
      </trkpt>
      <trkpt lat="45.79861" lon="4.80492">
        <ele>292</ele>
        <time>2014-03-30T16:31:00.1Z</time>
      </trkpt>
      <trkpt lat="45.79857" lon="4.80492">
        <ele>292</ele>
        <time>2014-03-30T16:31:01.1Z</time>
      </trkpt>
    </trkseg>
  </trk>
</gpx>